WAJ0039 RJFF-RJFM
Flight info
| Callsign | WAJ0039 |
|---|---|
| Flight time | 0h 27m |
| Altitude | 15000 |
| Route | YAMGA KUE ESKAP KROMA ENBEN MZE |
| Aircraft | A320/M-SDE3FGHIRWY/LB1 |
Departure
| Time | 2026-05-07 13:44 |
|---|---|
| Airport | Fukuoka Airport (RJFF) |
Arrival
| Time | 2026-05-07 14:12 |
|---|---|
| Airport | Miyazaki Airport (RJFM) |
| Time | Latitude | Longitude | Altitude | Speed | Heading |
|---|---|---|---|---|---|
| 2026-05-07 13:28 | 33.60083 | 130.44472 | 24 ft | 0 kts | 62° |
| 2026-05-07 13:35 | 33.60082 | 130.44470 | 24 ft | 3 kts | 62° |
| 2026-05-07 13:35 | 33.60076 | 130.44441 | 28 ft | 4 kts | 90° |
| 2026-05-07 13:36 | 33.60070 | 130.44419 | 27 ft | 4 kts | 49° |
| 2026-05-07 13:36 | 33.60049 | 130.44404 | 28 ft | 4 kts | 12° |
| 2026-05-07 13:36 | 33.60026 | 130.44396 | 24 ft | 2 kts | 30° |
| 2026-05-07 13:36 | 33.60008 | 130.44380 | 23 ft | 4 kts | 65° |
| 2026-05-07 13:37 | 33.60007 | 130.44353 | 23 ft | 4 kts | 106° |
| 2026-05-07 13:37 | 33.60020 | 130.44328 | 25 ft | 4 kts | 149° |
| 2026-05-07 13:37 | 33.60036 | 130.44317 | 23 ft | 0 kts | 150° |
| 2026-05-07 13:40 | 33.60007 | 130.44337 | 23 ft | 17 kts | 150° |
| 2026-05-07 13:40 | 33.59913 | 130.44400 | 22 ft | 15 kts | 151° |
| 2026-05-07 13:40 | 33.59804 | 130.44471 | 27 ft | 20 kts | 152° |
| 2026-05-07 13:40 | 33.59674 | 130.44559 | 26 ft | 23 kts | 150° |
| 2026-05-07 13:41 | 33.59521 | 130.44664 | 26 ft | 26 kts | 150° |
| 2026-05-07 13:41 | 33.59339 | 130.44788 | 24 ft | 32 kts | 150° |
| 2026-05-07 13:41 | 33.59144 | 130.44919 | 25 ft | 33 kts | 150° |
| 2026-05-07 13:41 | 33.58942 | 130.45059 | 30 ft | 34 kts | 150° |
| 2026-05-07 13:42 | 33.58746 | 130.45195 | 33 ft | 30 kts | 149° |
| 2026-05-07 13:42 | 33.58541 | 130.45336 | 33 ft | 41 kts | 151° |
| 2026-05-07 13:42 | 33.58289 | 130.45504 | 31 ft | 42 kts | 149° |
| 2026-05-07 13:42 | 33.58071 | 130.45656 | 35 ft | 19 kts | 154° |
| 2026-05-07 13:43 | 33.57954 | 130.45604 | 42 ft | 18 kts | 239° |
| 2026-05-07 13:43 | 33.57984 | 130.45486 | 39 ft | 15 kts | 338° |
| 2026-05-07 13:43 | 33.58016 | 130.45461 | 40 ft | 0 kts | 330° |
| 2026-05-07 13:43 | 33.58138 | 130.45376 | 36 ft | 62 kts | 330° |
| 2026-05-07 13:44 | 33.58778 | 130.44939 | 36 ft | 146 kts | 330° |
| 2026-05-07 13:44 | 33.59748 | 130.44261 | 490 ft | 170 kts | 330° |
| 2026-05-07 13:44 | 33.60801 | 130.43547 | 1146 ft | 173 kts | 329° |
| 2026-05-07 13:44 | 33.61885 | 130.42808 | 1644 ft | 189 kts | 328° |
| 2026-05-07 13:45 | 33.63094 | 130.41981 | 1989 ft | 212 kts | 328° |
| 2026-05-07 13:45 | 33.64468 | 130.41095 | 2372 ft | 238 kts | 336° |
| 2026-05-07 13:45 | 33.66199 | 130.40979 | 2833 ft | 267 kts | 15° |
| 2026-05-07 13:45 | 33.67778 | 130.42193 | 3569 ft | 278 kts | 50° |
| 2026-05-07 13:46 | 33.68829 | 130.44165 | 4468 ft | 283 kts | 66° |
| 2026-05-07 13:46 | 33.69231 | 130.46452 | 5321 ft | 283 kts | 98° |
| 2026-05-07 13:46 | 33.68743 | 130.48732 | 6201 ft | 283 kts | 117° |
| 2026-05-07 13:46 | 33.67717 | 130.50747 | 7004 ft | 285 kts | 135° |
| 2026-05-07 13:47 | 33.66201 | 130.52214 | 7808 ft | 285 kts | 153° |
| 2026-05-07 13:47 | 33.64465 | 130.53458 | 8674 ft | 289 kts | 155° |
| 2026-05-07 13:47 | 33.62657 | 130.54454 | 9498 ft | 292 kts | 162° |
| 2026-05-07 13:47 | 33.60756 | 130.55402 | 9889 ft | 297 kts | 162° |
| 2026-05-07 13:48 | 33.58838 | 130.56356 | 9996 ft | 304 kts | 162° |
| 2026-05-07 13:48 | 33.56772 | 130.57373 | 10019 ft | 338 kts | 162° |
| 2026-05-07 13:48 | 33.54495 | 130.58493 | 10024 ft | 366 kts | 161° |
| 2026-05-07 13:48 | 33.52110 | 130.59681 | 10011 ft | 373 kts | 161° |
| 2026-05-07 13:49 | 33.49706 | 130.60892 | 10015 ft | 375 kts | 161° |
| 2026-05-07 13:49 | 33.47298 | 130.62115 | 10014 ft | 376 kts | 161° |
| 2026-05-07 13:49 | 33.44865 | 130.63349 | 10576 ft | 381 kts | 161° |
| 2026-05-07 13:49 | 33.42363 | 130.64364 | 11299 ft | 380 kts | 168° |
| 2026-05-07 13:50 | 33.39808 | 130.65229 | 12012 ft | 383 kts | 169° |
| 2026-05-07 13:50 | 33.37229 | 130.66097 | 12700 ft | 387 kts | 169° |
| 2026-05-07 13:50 | 33.34629 | 130.66971 | 13382 ft | 390 kts | 169° |
| 2026-05-07 13:50 | 33.32004 | 130.67853 | 14018 ft | 393 kts | 169° |
| 2026-05-07 13:51 | 33.29359 | 130.68739 | 14585 ft | 396 kts | 169° |
| 2026-05-07 13:51 | 33.26698 | 130.69632 | 14869 ft | 397 kts | 169° |
| 2026-05-07 13:51 | 33.24022 | 130.70533 | 14947 ft | 406 kts | 169° |
| 2026-05-07 13:51 | 33.21254 | 130.71461 | 14960 ft | 418 kts | 169° |
| 2026-05-07 13:52 | 33.18433 | 130.72411 | 14960 ft | 421 kts | 169° |
| 2026-05-07 13:52 | 33.15606 | 130.73365 | 14955 ft | 421 kts | 169° |
| 2026-05-07 13:52 | 33.12823 | 130.74302 | 14963 ft | 422 kts | 169° |
| 2026-05-07 13:52 | 33.09995 | 130.75252 | 14967 ft | 422 kts | 169° |
| 2026-05-07 13:53 | 33.07163 | 130.76204 | 14953 ft | 422 kts | 169° |
| 2026-05-07 13:53 | 33.04332 | 130.77156 | 14985 ft | 423 kts | 169° |
| 2026-05-07 13:53 | 33.01504 | 130.78106 | 14990 ft | 423 kts | 169° |
| 2026-05-07 13:53 | 32.98671 | 130.79059 | 14994 ft | 423 kts | 169° |
| 2026-05-07 13:54 | 32.95837 | 130.80014 | 14993 ft | 423 kts | 169° |
| 2026-05-07 13:54 | 32.93006 | 130.80966 | 14996 ft | 423 kts | 169° |
| 2026-05-07 13:54 | 32.90175 | 130.81914 | 14995 ft | 422 kts | 169° |
| 2026-05-07 13:54 | 32.87344 | 130.82858 | 14994 ft | 422 kts | 169° |
| 2026-05-07 13:55 | 32.84518 | 130.83824 | 14983 ft | 424 kts | 166° |
| 2026-05-07 13:55 | 32.81789 | 130.85203 | 14983 ft | 430 kts | 157° |
| 2026-05-07 13:55 | 32.79146 | 130.86880 | 14984 ft | 431 kts | 156° |
| 2026-05-07 13:55 | 32.76528 | 130.88537 | 14984 ft | 431 kts | 157° |
| 2026-05-07 13:56 | 32.73877 | 130.90208 | 14984 ft | 431 kts | 157° |
| 2026-05-07 13:56 | 32.71223 | 130.91875 | 14967 ft | 430 kts | 157° |
| 2026-05-07 13:56 | 32.68565 | 130.93538 | 14968 ft | 430 kts | 157° |
| 2026-05-07 13:56 | 32.65913 | 130.95195 | 14969 ft | 431 kts | 157° |
| 2026-05-07 13:57 | 32.63261 | 130.96854 | 14967 ft | 431 kts | 157° |
| 2026-05-07 13:57 | 32.60607 | 130.98519 | 14960 ft | 430 kts | 156° |
| 2026-05-07 13:57 | 32.58001 | 131.00154 | 14935 ft | 431 kts | 156° |
| 2026-05-07 13:57 | 32.55354 | 131.01814 | 14682 ft | 429 kts | 156° |
| 2026-05-07 13:58 | 32.52725 | 131.03465 | 14450 ft | 427 kts | 156° |
| 2026-05-07 13:58 | 32.50098 | 131.05110 | 14221 ft | 427 kts | 156° |
| 2026-05-07 13:58 | 32.47477 | 131.06749 | 13986 ft | 424 kts | 156° |
| 2026-05-07 13:58 | 32.44859 | 131.08384 | 13759 ft | 424 kts | 156° |
| 2026-05-07 13:59 | 32.42253 | 131.10013 | 13460 ft | 421 kts | 156° |
| 2026-05-07 13:59 | 32.39703 | 131.11613 | 12801 ft | 404 kts | 156° |
| 2026-05-07 13:59 | 32.37279 | 131.13139 | 11946 ft | 392 kts | 156° |
| 2026-05-07 13:59 | 32.34820 | 131.14672 | 10824 ft | 405 kts | 156° |
| 2026-05-07 14:00 | 32.32360 | 131.16199 | 10566 ft | 391 kts | 156° |
| 2026-05-07 14:00 | 32.30010 | 131.17663 | 10433 ft | 373 kts | 156° |
| 2026-05-07 14:00 | 32.27765 | 131.19063 | 10320 ft | 358 kts | 156° |
| 2026-05-07 14:00 | 32.25596 | 131.20414 | 10204 ft | 347 kts | 156° |
| 2026-05-07 14:01 | 32.23630 | 131.21638 | 10091 ft | 336 kts | 156° |
| 2026-05-07 14:01 | 32.21598 | 131.22900 | 9976 ft | 323 kts | 157° |
| 2026-05-07 14:01 | 32.19668 | 131.24098 | 9855 ft | 311 kts | 157° |
| 2026-05-07 14:01 | 32.17782 | 131.25268 | 9663 ft | 303 kts | 157° |
| 2026-05-07 14:02 | 32.15926 | 131.26414 | 9314 ft | 299 kts | 157° |
| 2026-05-07 14:02 | 32.14087 | 131.27549 | 8893 ft | 297 kts | 157° |
| 2026-05-07 14:02 | 32.12259 | 131.28676 | 8526 ft | 296 kts | 157° |
| 2026-05-07 14:02 | 32.10447 | 131.29798 | 8210 ft | 293 kts | 156° |
| 2026-05-07 14:03 | 32.08649 | 131.30914 | 7836 ft | 291 kts | 156° |
| 2026-05-07 14:03 | 32.06862 | 131.32022 | 7453 ft | 289 kts | 156° |
| 2026-05-07 14:03 | 32.05089 | 131.33120 | 7084 ft | 287 kts | 156° |
| 2026-05-07 14:03 | 32.03333 | 131.34208 | 6721 ft | 284 kts | 156° |
| 2026-05-07 14:04 | 32.01590 | 131.35285 | 6329 ft | 282 kts | 155° |
| 2026-05-07 14:04 | 31.99857 | 131.36355 | 6005 ft | 278 kts | 155° |
| 2026-05-07 14:04 | 31.98142 | 131.37278 | 5875 ft | 262 kts | 169° |
| 2026-05-07 14:04 | 31.96394 | 131.37438 | 5755 ft | 245 kts | 185° |
| 2026-05-07 14:05 | 31.94741 | 131.37325 | 5616 ft | 228 kts | 188° |
| 2026-05-07 14:05 | 31.93221 | 131.37151 | 5493 ft | 211 kts | 189° |
| 2026-05-07 14:05 | 31.91819 | 131.36985 | 5254 ft | 201 kts | 189° |
| 2026-05-07 14:05 | 31.90457 | 131.36825 | 5069 ft | 188 kts | 189° |
| 2026-05-07 14:06 | 31.89217 | 131.36689 | 4931 ft | 170 kts | 189° |
| 2026-05-07 14:06 | 31.88121 | 131.36877 | 4817 ft | 158 kts | 154° |
| 2026-05-07 14:06 | 31.87456 | 131.37871 | 4563 ft | 157 kts | 118° |
| 2026-05-07 14:06 | 31.86836 | 131.38878 | 4204 ft | 149 kts | 156° |
| 2026-05-07 14:07 | 31.85938 | 131.39427 | 3881 ft | 148 kts | 150° |
| 2026-05-07 14:07 | 31.85298 | 131.40406 | 3526 ft | 156 kts | 120° |
| 2026-05-07 14:07 | 31.84894 | 131.41580 | 3183 ft | 157 kts | 114° |
| 2026-05-07 14:07 | 31.84537 | 131.42793 | 2870 ft | 156 kts | 112° |
| 2026-05-07 14:08 | 31.84199 | 131.44013 | 2543 ft | 157 kts | 107° |
| 2026-05-07 14:08 | 31.84164 | 131.45303 | 2201 ft | 159 kts | 86° |
| 2026-05-07 14:08 | 31.84297 | 131.46588 | 1889 ft | 157 kts | 84° |
| 2026-05-07 14:08 | 31.84425 | 131.47836 | 1592 ft | 155 kts | 85° |
| 2026-05-07 14:09 | 31.84496 | 131.49070 | 1328 ft | 150 kts | 89° |
| 2026-05-07 14:09 | 31.84580 | 131.50247 | 1116 ft | 140 kts | 75° |
| 2026-05-07 14:09 | 31.85128 | 131.51118 | 786 ft | 134 kts | 22° |
| 2026-05-07 14:09 | 31.86006 | 131.51218 | 544 ft | 123 kts | 345° |
| 2026-05-07 14:10 | 31.86795 | 131.50856 | 276 ft | 125 kts | 329° |
| 2026-05-07 14:10 | 31.87471 | 131.50246 | 533 ft | 120 kts | 294° |
| 2026-05-07 14:10 | 31.87791 | 131.49293 | 820 ft | 138 kts | 286° |
| 2026-05-07 14:10 | 31.87895 | 131.48082 | 726 ft | 151 kts | 265° |
| 2026-05-07 14:11 | 31.87845 | 131.46836 | 300 ft | 149 kts | 265° |
| 2026-05-07 14:11 | 31.87771 | 131.45658 | 37 ft | 133 kts | 264° |
| 2026-05-07 14:11 | 31.87718 | 131.44990 | 33 ft | 114 kts | 265° |
| 2026-05-07 14:11 | 31.87672 | 131.44333 | 32 ft | 60 kts | 265° |
| 2026-05-07 14:12 | 31.87634 | 131.44157 | 30 ft | 7 kts | 181° |
| 2026-05-07 14:12 | 31.87574 | 131.44160 | 31 ft | 5 kts | 182° |
| 2026-05-07 14:12 | 31.87551 | 131.44158 | 31 ft | 4 kts | 184° |
| 2026-05-07 14:12 | 31.87516 | 131.44173 | 31 ft | 9 kts | 159° |
| 2026-05-07 14:13 | 31.87459 | 131.44173 | 31 ft | 9 kts | 185° |
| 2026-05-07 14:13 | 31.87397 | 131.44167 | 31 ft | 8 kts | 185° |
| 2026-05-07 14:13 | 31.87358 | 131.44155 | 31 ft | 0 kts | 187° |